createdAt,value
2022-10-23T00:01:52.981Z,22.39
2022-10-23T00:04:22.107Z,22.39
2022-10-23T00:06:49.239Z,22.36
2022-10-23T00:09:17.807Z,22.38
2022-10-23T00:11:47.936Z,22.37
2022-10-23T00:14:15.500Z,22.37
2022-10-23T00:16:41.979Z,22.37
2022-10-23T00:19:08.456Z,22.37
2022-10-23T00:21:37.425Z,22.39
2022-10-23T00:24:04.170Z,22.36
2022-10-23T00:26:33.280Z,22.35
2022-10-23T00:28:59.888Z,22.35
2022-10-23T00:31:29.604Z,22.34
2022-10-23T00:33:56.075Z,22.36
2022-10-23T00:36:22.665Z,22.35
2022-10-23T00:38:49.979Z,22.36
2022-10-23T00:41:23.960Z,22.32
2022-10-23T00:44:22.544Z,22.32
2022-10-23T00:46:49.024Z,22.34
2022-10-23T00:49:20.410Z,22.32
2022-10-23T00:51:51.468Z,22.32
2022-10-23T00:54:24.330Z,22.31
2022-10-23T00:56:56.711Z,22.32
2022-10-23T00:59:29.586Z,22.30
2022-10-23T01:01:56.014Z,22.28
2022-10-23T01:04:23.881Z,22.29
2022-10-23T01:07:17.518Z,22.28
2022-10-23T01:10:03.934Z,22.26
2022-10-23T01:12:49.189Z,22.25
2022-10-23T01:15:33.828Z,22.23
2022-10-23T01:18:06.212Z,22.23
2022-10-23T01:20:32.986Z,22.24
2022-10-23T01:23:11.762Z,22.23
2022-10-23T01:26:15.583Z,22.23
2022-10-23T01:28:49.875Z,22.23
2022-10-23T01:31:23.862Z,22.20
2022-10-23T01:34:00.571Z,22.20
2022-10-23T01:36:29.779Z,22.20
2022-10-23T01:39:06.669Z,22.19
2022-10-23T01:41:39.557Z,22.22
2022-10-23T01:44:08.682Z,22.19
2022-10-23T01:46:37.386Z,22.20
2022-10-23T01:49:07.960Z,22.19
2022-10-23T01:51:36.504Z,22.20
2022-10-23T01:54:07.274Z,22.20
2022-10-23T01:56:36.762Z,22.19
2022-10-23T01:59:08.425Z,22.19
2022-10-23T02:01:37.377Z,22.18
2022-10-23T02:04:08.813Z,22.17
2022-10-23T02:06:35.387Z,22.16
2022-10-23T02:09:02.001Z,22.18
2022-10-23T02:11:30.848Z,22.19
2022-10-23T02:14:26.778Z,22.17
2022-10-23T02:17:00.510Z,22.17
2022-10-23T02:19:38.834Z,22.17
2022-10-23T02:22:10.905Z,22.15
2022-10-23T02:24:45.515Z,22.12
2022-10-23T02:27:15.961Z,22.13
2022-10-23T02:30:08.087Z,22.13
2022-10-23T02:32:37.319Z,22.14
2022-10-23T02:35:04.237Z,22.13
2022-10-23T02:37:30.727Z,22.11
2022-10-23T02:39:57.907Z,22.12
2022-10-23T02:42:36.271Z,22.12
2022-10-23T02:45:12.019Z,22.11
2022-10-23T02:47:49.105Z,22.10
2022-10-23T02:50:36.824Z,22.10
2022-10-23T02:53:07.488Z,22.10
2022-10-23T02:55:45.955Z,22.10
2022-10-23T02:58:22.913Z,22.08
2022-10-23T03:00:55.894Z,22.09
2022-10-23T03:03:30.130Z,22.11
2022-10-23T03:05:56.650Z,22.10
2022-10-23T03:08:23.221Z,22.08
2022-10-23T03:10:49.703Z,22.08
2022-10-23T03:13:16.118Z,22.07
2022-10-23T03:15:42.875Z,22.07
2022-10-23T03:18:09.412Z,22.06
2022-10-23T03:20:35.887Z,22.05
2022-10-23T03:23:02.588Z,22.05
2022-10-23T03:25:29.012Z,22.07
2022-10-23T03:27:55.495Z,22.06
2022-10-23T03:30:21.951Z,22.06
2022-10-23T03:32:48.347Z,22.06
2022-10-23T03:35:14.780Z,22.04
2022-10-23T03:37:41.385Z,22.05
2022-10-23T03:40:08.773Z,22.04
2022-10-23T03:42:35.267Z,22.03
2022-10-23T03:45:01.918Z,22.03
2022-10-23T03:47:30.170Z,22.03
2022-10-23T03:49:56.636Z,22.03
2022-10-23T03:54:54.386Z,22.03
2022-10-23T03:57:20.795Z,22.04
2022-10-23T03:59:47.293Z,22.02
2022-10-23T04:02:13.717Z,22.00
2022-10-23T04:04:40.204Z,22.00
2022-10-23T04:07:06.656Z,22.00
2022-10-23T04:09:33.114Z,22.00
2022-10-23T04:11:59.590Z,22.00
2022-10-23T04:14:26.169Z,21.99
2022-10-23T04:16:52.640Z,21.98
2022-10-23T04:19:19.135Z,21.97
2022-10-23T04:21:45.849Z,21.97
2022-10-23T04:24:12.399Z,21.97
2022-10-23T04:26:38.822Z,21.97
2022-10-23T04:29:05.427Z,21.97
2022-10-23T04:31:31.960Z,21.95
2022-10-23T04:36:24.927Z,21.97
2022-10-23T04:38:51.330Z,21.94
2022-10-23T04:41:17.730Z,21.92
2022-10-23T04:43:44.249Z,21.92
2022-10-23T04:46:10.718Z,21.97
2022-10-23T04:48:37.139Z,21.92
2022-10-23T04:51:05.966Z,21.93
2022-10-23T04:53:32.871Z,21.93
2022-10-23T04:56:00.279Z,21.92
2022-10-23T04:58:28.163Z,21.91
2022-10-23T05:00:55.281Z,21.90
2022-10-23T05:03:22.882Z,21.90
2022-10-23T05:05:49.401Z,21.90
2022-10-23T05:08:18.044Z,21.90
2022-10-23T05:10:45.048Z,21.90
2022-10-23T05:13:11.477Z,21.87
2022-10-23T05:15:37.939Z,21.87
2022-10-23T05:18:12.787Z,21.86
2022-10-23T05:20:40.337Z,21.86
2022-10-23T05:23:11.172Z,21.86
2022-10-23T05:25:37.667Z,21.85
2022-10-23T05:28:04.169Z,21.85
2022-10-23T05:30:33.074Z,21.86
2022-10-23T05:33:01.445Z,21.86
2022-10-23T05:35:29.544Z,21.86
2022-10-23T05:37:58.947Z,21.85
2022-10-23T05:40:25.891Z,21.84
2022-10-23T05:42:52.374Z,21.84
2022-10-23T05:45:18.813Z,21.83
2022-10-23T05:47:46.102Z,21.83
2022-10-23T05:50:12.735Z,21.81
2022-10-23T05:52:39.156Z,21.81
2022-10-23T05:55:06.028Z,21.80
2022-10-23T05:57:33.731Z,21.79
2022-10-23T06:00:00.298Z,21.83
2022-10-23T06:02:26.810Z,21.81
2022-10-23T06:04:53.363Z,21.80
2022-10-23T06:07:25.734Z,21.79
2022-10-23T06:09:52.971Z,21.79
2022-10-23T06:12:20.927Z,21.79
2022-10-23T06:14:48.194Z,21.78
2022-10-23T06:17:15.127Z,21.78
2022-10-23T06:19:41.548Z,21.79
2022-10-23T06:22:08.067Z,21.77
2022-10-23T06:24:34.475Z,21.78
2022-10-23T06:27:00.964Z,21.77
2022-10-23T06:29:27.388Z,21.76
2022-10-23T06:31:53.830Z,21.76
2022-10-23T06:34:20.245Z,21.76
2022-10-23T06:36:46.663Z,21.76
2022-10-23T06:39:13.198Z,21.77
2022-10-23T06:41:42.031Z,21.79
2022-10-23T06:44:10.197Z,21.77
2022-10-23T06:46:36.744Z,21.76
2022-10-23T06:49:03.558Z,21.74
2022-10-23T06:51:29.998Z,21.75
2022-10-23T06:53:57.255Z,21.74
2022-10-23T06:56:25.268Z,21.73
2022-10-23T06:58:51.796Z,21.72
2022-10-23T07:01:18.372Z,21.72
2022-10-23T07:03:45.058Z,21.73
2022-10-23T07:06:11.962Z,21.72
2022-10-23T07:08:38.863Z,21.75
2022-10-23T07:11:10.325Z,21.74
2022-10-23T07:13:38.623Z,21.74
2022-10-23T07:16:17.346Z,21.74
2022-10-23T07:18:44.587Z,21.73
2022-10-23T07:21:11.303Z,21.72
2022-10-23T07:23:37.995Z,21.71
2022-10-23T07:26:15.640Z,21.76
2022-10-23T07:28:43.936Z,21.74
2022-10-23T07:31:11.504Z,21.75
2022-10-23T07:33:38.147Z,21.76
2022-10-23T07:36:06.670Z,21.74
2022-10-23T07:38:33.768Z,21.74
2022-10-23T07:41:00.685Z,21.74
2022-10-23T07:43:27.719Z,21.75
2022-10-23T07:45:54.445Z,21.75
2022-10-23T07:48:21.802Z,21.75
2022-10-23T07:50:48.301Z,21.75
2022-10-23T07:53:20.783Z,21.76
2022-10-23T07:56:02.140Z,21.75
2022-10-23T07:58:29.955Z,21.75
2022-10-23T08:14:19.654Z,21.77
2022-10-23T08:16:46.070Z,21.75
2022-10-23T08:19:12.570Z,21.78
2022-10-23T08:21:39.186Z,21.79
2022-10-23T08:24:06.236Z,21.80
2022-10-23T08:26:32.722Z,21.80
2022-10-23T08:28:59.896Z,21.85
2022-10-23T08:31:26.609Z,21.89
2022-10-23T08:33:53.171Z,21.93
2022-10-23T08:36:23.131Z,21.99
2022-10-23T08:38:50.110Z,22.04
2022-10-23T08:41:24.245Z,22.08
2022-10-23T08:43:58.306Z,22.11
2022-10-23T08:46:30.016Z,22.17
2022-10-23T08:49:20.524Z,22.21
2022-10-23T08:51:50.404Z,22.28
2022-10-23T08:54:19.854Z,22.31
2022-10-23T08:56:58.784Z,22.36
2022-10-23T08:59:40.467Z,22.39
2022-10-23T09:02:29.938Z,22.43
2022-10-23T09:04:58.292Z,22.45
2022-10-23T09:07:56.008Z,22.48
2022-10-23T09:10:45.989Z,22.50
2022-10-23T09:13:26.197Z,22.52
2022-10-23T09:16:03.701Z,22.52
2022-10-23T09:18:31.214Z,22.54
2022-10-23T09:20:57.661Z,22.54
2022-10-23T09:23:24.909Z,22.56
2022-10-23T09:25:57.614Z,22.57
2022-10-23T09:28:49.480Z,22.56
2022-10-23T09:31:16.618Z,22.58
2022-10-23T09:33:58.343Z,22.58
2022-10-23T09:36:29.064Z,22.59
2022-10-23T09:39:01.612Z,22.58
2022-10-23T09:41:33.744Z,22.59
2022-10-23T09:44:20.668Z,22.59
2022-10-23T09:49:20.699Z,22.61
2022-10-23T09:52:09.773Z,22.61
2022-10-23T09:54:45.462Z,22.60
2022-10-23T09:57:17.756Z,22.59
2022-10-23T09:59:44.443Z,22.58
2022-10-23T10:02:31.824Z,22.57
2022-10-23T10:04:58.915Z,22.57
2022-10-23T10:07:30.273Z,22.55
2022-10-23T10:09:58.814Z,22.56
2022-10-23T10:12:37.530Z,22.54
2022-10-23T10:15:34.737Z,22.53
2022-10-23T10:18:39.041Z,22.52
2022-10-23T10:21:15.668Z,22.50
2022-10-23T10:24:18.871Z,22.49
2022-10-23T10:27:00.900Z,22.49
2022-10-23T10:29:33.044Z,22.47
2022-10-23T10:32:05.998Z,22.44
2022-10-23T10:34:51.464Z,22.42
2022-10-23T10:37:24.619Z,22.41
2022-10-23T10:40:02.877Z,22.43
2022-10-23T10:42:56.072Z,22.43
2022-10-23T10:45:26.956Z,22.42
2022-10-23T10:48:21.029Z,22.43
2022-10-23T10:50:59.665Z,22.43
2022-10-23T10:53:38.124Z,22.43
2022-10-23T10:59:02.555Z,22.44
2022-10-23T11:01:42.578Z,22.46
2022-10-23T11:04:22.198Z,22.46
2022-10-23T11:06:51.998Z,22.46
2022-10-23T11:09:24.313Z,22.48
2022-10-23T11:11:50.930Z,22.51
2022-10-23T11:14:19.623Z,22.52
2022-10-23T11:16:49.318Z,22.54
2022-10-23T11:19:27.901Z,22.54
2022-10-23T11:22:09.955Z,22.56
2022-10-23T11:24:53.371Z,22.56
2022-10-23T11:27:42.529Z,22.58
2022-10-23T11:30:27.518Z,22.58
2022-10-23T11:33:05.994Z,22.60
2022-10-23T11:36:17.041Z,22.60
2022-10-23T11:38:53.716Z,22.61
2022-10-23T11:41:26.706Z,22.61
2022-10-23T11:43:57.150Z,22.59
2022-10-23T11:46:23.541Z,22.58
2022-10-23T11:48:50.422Z,22.57
2022-10-23T11:51:36.559Z,22.57
2022-10-23T11:54:12.037Z,22.57
2022-10-23T11:56:50.001Z,22.57
2022-10-23T11:59:21.531Z,22.56
2022-10-23T12:01:51.619Z,22.56
2022-10-23T12:04:24.098Z,22.55
2022-10-23T12:06:59.868Z,22.56
2022-10-23T12:09:28.259Z,22.54
2022-10-23T12:12:10.072Z,22.54
2022-10-23T12:14:43.987Z,22.54
2022-10-23T12:17:22.324Z,22.53
2022-10-23T12:19:49.881Z,22.53
2022-10-23T12:22:17.005Z,22.52
2022-10-23T12:24:57.879Z,22.50
2022-10-23T12:27:53.356Z,22.50
2022-10-23T12:30:23.544Z,22.48
2022-10-23T12:32:59.001Z,22.47
2022-10-23T12:35:48.992Z,22.47
2022-10-23T12:38:21.654Z,22.45
2022-10-23T12:41:13.500Z,22.44
2022-10-23T12:43:42.551Z,22.44
2022-10-23T12:46:17.662Z,22.43
2022-10-23T12:48:50.308Z,22.42
2022-10-23T12:51:24.191Z,22.40
2022-10-23T12:53:50.961Z,22.39
2022-10-23T12:56:18.111Z,22.39
2022-10-23T12:59:04.074Z,22.38
2022-10-23T13:01:33.042Z,22.39
2022-10-23T13:04:07.903Z,22.37
2022-10-23T13:06:34.739Z,22.36
2022-10-23T13:09:03.131Z,22.37
2022-10-23T13:11:30.814Z,22.34
2022-10-23T13:13:57.987Z,22.34
2022-10-23T13:16:26.010Z,22.36
2022-10-23T13:18:54.364Z,22.34
2022-10-23T13:21:23.862Z,22.33
2022-10-23T13:23:51.683Z,22.34
2022-10-23T13:26:33.629Z,22.31
2022-10-23T13:29:08.739Z,22.34
2022-10-23T13:31:36.532Z,22.32
2022-10-23T13:34:04.729Z,22.32
2022-10-23T13:36:35.969Z,22.30
2022-10-23T13:39:10.239Z,22.32
2022-10-23T13:41:46.884Z,22.29
2022-10-23T13:44:16.776Z,22.29
2022-10-23T13:46:44.048Z,22.28
2022-10-23T13:49:10.576Z,22.28
2022-10-23T13:51:42.689Z,22.28
2022-10-23T13:54:15.753Z,22.29
2022-10-23T13:56:42.179Z,22.27
2022-10-23T13:59:10.741Z,22.25
2022-10-23T14:01:37.329Z,22.28
2022-10-23T14:04:05.533Z,22.26
2022-10-23T14:06:32.798Z,22.25
2022-10-23T14:09:01.694Z,22.27
2022-10-23T14:11:28.183Z,22.24
2022-10-23T14:13:54.609Z,22.25
2022-10-23T14:16:21.645Z,22.25
2022-10-23T14:18:48.332Z,22.25
2022-10-23T14:21:19.890Z,22.24
2022-10-23T14:23:47.714Z,22.23
2022-10-23T14:26:17.956Z,22.24
2022-10-23T14:28:44.628Z,22.24
2022-10-23T14:31:13.129Z,22.23
2022-10-23T14:33:40.059Z,22.23
2022-10-23T14:36:07.575Z,22.22
2022-10-23T14:38:34.258Z,22.23
2022-10-23T14:41:01.205Z,22.23
2022-10-23T14:43:27.663Z,22.23
2022-10-23T14:45:54.088Z,22.22
2022-10-23T14:48:20.569Z,22.21
2022-10-23T14:50:49.377Z,22.24
2022-10-23T14:53:16.087Z,22.23
2022-10-23T14:55:42.541Z,22.20
2022-10-23T14:58:09.011Z,22.20
2022-10-23T15:00:35.476Z,22.21
2022-10-23T15:03:01.926Z,22.20
2022-10-23T15:05:28.352Z,22.20
2022-10-23T15:07:56.184Z,22.20
2022-10-23T15:10:22.644Z,22.18
2022-10-23T15:12:49.321Z,22.18
2022-10-23T15:15:15.848Z,22.17
2022-10-23T15:17:42.379Z,22.18
2022-10-23T15:20:09.361Z,22.17
2022-10-23T15:22:35.861Z,22.17
2022-10-23T15:25:02.332Z,22.17
2022-10-23T15:27:28.815Z,22.14
2022-10-23T15:29:55.343Z,22.14
2022-10-23T15:32:21.785Z,22.15
2022-10-23T15:34:49.658Z,22.13
2022-10-23T15:37:16.292Z,22.14
2022-10-23T15:39:43.102Z,22.15
2022-10-23T15:42:10.577Z,22.14
2022-10-23T15:44:39.436Z,22.12
2022-10-23T15:47:05.887Z,22.11
2022-10-23T15:49:32.670Z,22.12
2022-10-23T15:51:59.465Z,22.11
2022-10-23T15:54:29.239Z,22.09
2022-10-23T15:56:58.394Z,22.10
2022-10-23T15:59:25.835Z,22.10
2022-10-23T16:01:52.750Z,22.09
2022-10-23T16:04:20.107Z,22.08
2022-10-23T16:06:46.721Z,22.08
2022-10-23T16:09:13.976Z,22.06
2022-10-23T16:11:41.846Z,22.08
2022-10-23T16:14:10.583Z,22.08
2022-10-23T16:16:37.101Z,22.05
2022-10-23T16:19:04.603Z,22.05
2022-10-23T16:21:36.203Z,22.05
2022-10-23T16:24:05.101Z,22.04
2022-10-23T16:26:32.243Z,22.04
2022-10-23T16:29:04.181Z,22.04
2022-10-23T16:31:30.700Z,22.04
2022-10-23T16:34:01.641Z,22.02
2022-10-23T16:36:29.383Z,22.02
2022-10-23T16:38:59.027Z,22.02
2022-10-23T16:41:25.408Z,22.02
2022-10-23T16:43:51.918Z,22.00
2022-10-23T16:46:20.770Z,22.02
2022-10-23T16:48:48.008Z,22.00
2022-10-23T16:51:17.054Z,22.00
2022-10-23T16:53:44.306Z,22.00
2022-10-23T16:56:13.044Z,22.00
2022-10-23T16:58:42.376Z,22.01
2022-10-23T17:01:18.882Z,21.99
2022-10-23T17:03:48.508Z,21.99
2022-10-23T17:06:18.075Z,22.01
2022-10-23T17:08:44.738Z,21.98
2022-10-23T17:11:19.923Z,21.97
2022-10-23T17:13:53.631Z,21.97
2022-10-23T17:16:26.689Z,21.98
2022-10-23T17:18:53.135Z,21.97
2022-10-23T17:21:22.296Z,21.97
2022-10-23T17:23:49.359Z,21.97
2022-10-23T17:26:21.655Z,21.97
2022-10-23T17:28:48.235Z,21.96
2022-10-23T17:31:21.005Z,21.95
2022-10-23T17:33:47.964Z,21.94
2022-10-23T17:36:16.375Z,21.98
2022-10-23T17:38:43.646Z,21.95
2022-10-23T17:41:12.196Z,21.94
2022-10-23T17:43:39.125Z,21.95
2022-10-23T17:46:07.161Z,21.93
2022-10-23T17:48:35.003Z,21.94
2022-10-23T17:51:07.372Z,21.92
2022-10-23T17:53:38.299Z,21.93
2022-10-23T17:56:06.762Z,21.91
2022-10-23T17:58:34.109Z,21.93
2022-10-23T18:01:12.886Z,21.95
2022-10-23T18:03:39.885Z,21.93
2022-10-23T18:06:15.991Z,21.92
2022-10-23T18:08:43.856Z,21.90
2022-10-23T18:11:32.367Z,21.89
2022-10-23T18:16:30.969Z,21.91
2022-10-23T18:18:59.396Z,21.90
2022-10-23T18:21:27.521Z,21.91
2022-10-23T18:23:54.249Z,21.91
2022-10-23T18:26:23.510Z,21.91
2022-10-23T18:28:51.815Z,21.91
2022-10-23T18:31:19.857Z,21.89
2022-10-23T18:33:47.244Z,21.88
2022-10-23T18:36:20.981Z,21.86
2022-10-23T18:38:48.507Z,21.88
2022-10-23T18:41:17.978Z,21.86
2022-10-23T18:43:44.814Z,21.89
2022-10-23T18:46:14.738Z,21.88
2022-10-23T18:48:42.705Z,21.90
2022-10-23T18:51:17.843Z,21.87
2022-10-23T18:53:46.698Z,21.88
2022-10-23T18:56:22.335Z,21.90
2022-10-23T18:58:58.011Z,21.89
2022-10-23T19:01:27.077Z,21.87
2022-10-23T19:06:28.184Z,21.86
2022-10-23T19:08:54.652Z,21.90
2022-10-23T19:11:23.488Z,21.86
2022-10-23T19:13:50.176Z,21.85
2022-10-23T19:16:20.999Z,21.86
2022-10-23T19:18:51.845Z,21.85
2022-10-23T19:21:21.465Z,21.87
2022-10-23T19:23:48.507Z,21.85
2022-10-23T19:26:15.706Z,21.88
2022-10-23T19:28:45.433Z,21.86
2022-10-23T19:31:12.855Z,21.83
2022-10-23T19:33:39.644Z,21.84
2022-10-23T19:36:11.211Z,21.84
2022-10-23T19:38:45.932Z,21.85
2022-10-23T19:41:12.445Z,21.82
2022-10-23T19:43:38.920Z,21.84
2022-10-23T19:46:09.316Z,21.85
2022-10-23T19:48:42.301Z,21.84
2022-10-23T19:51:09.458Z,21.84
2022-10-23T19:53:36.307Z,21.85
2022-10-23T19:56:06.555Z,21.82
2022-10-23T19:58:33.428Z,21.83
2022-10-23T20:01:10.333Z,21.86
2022-10-23T20:03:37.843Z,21.81
2022-10-23T20:06:04.524Z,21.82
2022-10-23T20:08:32.782Z,21.83
2022-10-23T20:11:01.725Z,21.82
2022-10-23T20:13:28.168Z,21.82
2022-10-23T20:15:55.272Z,21.81
2022-10-23T20:18:21.929Z,21.84
2022-10-23T20:20:48.454Z,21.82
2022-10-23T20:23:14.880Z,21.82
2022-10-23T20:25:41.293Z,21.79
2022-10-23T20:28:10.198Z,21.82
2022-10-23T20:30:41.565Z,21.81
2022-10-23T20:33:08.062Z,21.84
2022-10-23T20:35:43.541Z,21.80
2022-10-23T20:38:10.522Z,21.81
2022-10-23T20:40:37.361Z,21.83
2022-10-23T20:43:04.007Z,21.82
2022-10-23T20:45:30.493Z,21.80
2022-10-23T20:47:57.033Z,21.79
2022-10-23T20:50:23.897Z,21.82
2022-10-23T20:52:50.818Z,21.82
2022-10-23T20:55:17.569Z,21.82
2022-10-23T20:57:44.281Z,21.80
2022-10-23T21:00:11.514Z,21.79
2022-10-23T21:02:38.030Z,21.80
2022-10-23T21:05:04.909Z,21.81
2022-10-23T21:07:31.325Z,21.81
2022-10-23T21:09:57.741Z,21.80
2022-10-23T21:12:24.154Z,21.82
2022-10-23T21:14:50.688Z,21.79
2022-10-23T21:17:18.069Z,21.80
2022-10-23T21:19:44.605Z,21.77
2022-10-23T21:22:11.102Z,21.79
2022-10-23T21:24:37.560Z,21.80
2022-10-23T21:27:04.080Z,21.79
2022-10-23T21:29:30.558Z,21.80
2022-10-23T21:31:59.496Z,21.82
2022-10-23T21:34:26.924Z,21.81
2022-10-23T21:37:12.620Z,21.78
2022-10-23T21:39:41.079Z,21.77
2022-10-23T21:42:07.783Z,21.77
2022-10-23T21:44:34.166Z,21.79
2022-10-23T21:47:00.762Z,21.76
2022-10-23T21:49:27.177Z,21.76
2022-10-23T21:51:54.944Z,21.76
2022-10-23T21:54:21.812Z,21.76
2022-10-23T21:56:50.436Z,21.77
2022-10-23T21:59:19.706Z,21.78
2022-10-23T22:01:47.994Z,21.78
2022-10-23T22:04:17.383Z,21.77
2022-10-23T22:06:45.722Z,21.78
2022-10-23T22:09:14.765Z,21.78
2022-10-23T22:11:41.637Z,21.75
2022-10-23T22:14:08.202Z,21.76
2022-10-23T22:16:34.863Z,21.75
2022-10-23T22:19:01.513Z,21.78
2022-10-23T22:21:29.729Z,21.74
2022-10-23T22:23:58.025Z,21.76
2022-10-23T22:26:28.815Z,21.77
2022-10-23T22:28:58.096Z,21.75
2022-10-23T22:31:30.800Z,21.74
2022-10-23T22:33:58.806Z,21.74
2022-10-23T22:36:25.797Z,21.74
2022-10-23T22:38:53.206Z,21.75
2022-10-23T22:41:19.972Z,21.76
2022-10-23T22:43:46.490Z,21.76
2022-10-23T22:46:18.200Z,21.75
2022-10-23T22:48:45.671Z,21.73
2022-10-23T22:51:14.493Z,21.76
2022-10-23T22:53:41.235Z,21.74
2022-10-23T22:56:09.371Z,21.72
2022-10-23T22:58:35.893Z,21.76
2022-10-23T23:01:12.133Z,21.73
2022-10-23T23:03:38.973Z,21.74
2022-10-23T23:06:06.929Z,21.74
2022-10-23T23:08:34.578Z,21.73
2022-10-23T23:11:01.807Z,21.73
2022-10-23T23:13:28.375Z,21.74
2022-10-23T23:15:55.816Z,21.76
2022-10-23T23:18:22.316Z,21.73
2022-10-23T23:20:49.348Z,21.73
2022-10-23T23:23:15.865Z,21.73
2022-10-23T23:25:50.111Z,21.71
2022-10-23T23:28:18.957Z,21.71
2022-10-23T23:33:19.416Z,21.72
2022-10-23T23:35:48.055Z,21.71
2022-10-23T23:38:14.646Z,21.72
2022-10-23T23:40:41.066Z,21.71
2022-10-23T23:43:07.494Z,21.72
2022-10-23T23:45:33.897Z,21.72
2022-10-23T23:48:00.395Z,21.74
2022-10-23T23:50:27.959Z,21.70
2022-10-23T23:52:54.474Z,21.69
2022-10-23T23:55:21.070Z,21.69
2022-10-23T23:57:47.611Z,21.69
